SBCT Airport Information

Runway Information
Runway 11 Length 5906 ft width 148 ft
Elevation 0 ft Threshold 0 ft Heading 0
Runway 29 Length 5906 ft Width 148 ft
Elevation 0 ft Threshold 0 ft Heading 0
Runway 15 Length 7267 ft width 148 ft
Elevation 0 ft Threshold 0 ft Heading 0
Runway 33 Length 7267 ft Width 148 ft
Elevation 0 ft Threshold 0 ft Heading 0
Airport Frequencies
Type APP Name CURITIBA A Frequency 119.95 MHZ
Type ATIS Name ATIS Frequency 127.8 MHZ
Type GND Name GND Frequency 121.9 MHZ
Type TWR Name CURITIBA T Frequency 118.55 MHZ
Airport Navaids
Type NDB Name Curitiba Frequency 390 KHZ
Type VOR-DME Name Curitiba Frequency 116500 KHZ
Type NDB Name Pinhais Frequency 255 KHZ
Airport Weather Information & NOTAM
ADDS - METARS form results

(0125 UTC 26 February 2018)
 
METAR text: SBCT 260100Z 11004KT 9999 SCT013 BKN025 17/15 Q1020
Conditions at: SBCT (CURITIBA/AFONSO , BR) observed 0100 UTC 26 February 2018
Temperature: 17.0°C (63°F)
Dewpoint: 15.0°C (59°F) [RH = 88%]
Pressure (altimeter): 30.12 inches Hg (1020.0 mb)
Winds: from the ESE (110 degrees) at 5 MPH (4 knots; 2.1 m/s)
Visibility: 6 or more miles (10+ km)
Ceiling: 2500 feet AGL
Clouds: scattered clouds at 1300 feet AGL
broken clouds at 2500 feet AGL
Weather: no significant weather observed at this time